sensor_id;sensor_type;location;lat;lon;timestamp;pressure;altitude;pressure_sealevel;temperature;humidity
9239;BME280;4654;43.242;27.976;2022-08-01T00:01:48;98795.94;;;21.92;100.00
9239;BME280;4654;43.242;27.976;2022-08-01T00:04:15;98790.59;;;21.92;100.00
9239;BME280;4654;43.242;27.976;2022-08-01T00:06:44;98787.53;;;21.94;100.00
9239;BME280;4654;43.242;27.976;2022-08-01T00:09:11;98785.00;;;22.01;100.00
9239;BME280;4654;43.242;27.976;2022-08-01T00:11:37;98784.53;;;21.95;100.00
9239;BME280;4654;43.242;27.976;2022-08-01T00:14:04;98781.06;;;21.95;100.00
9239;BME280;4654;43.242;27.976;2022-08-01T00:16:31;98780.66;;;21.93;100.00
9239;BME280;4654;43.242;27.976;2022-08-01T00:18:58;98777.56;;;21.91;100.00
9239;BME280;4654;43.242;27.976;2022-08-01T00:21:25;98780.22;;;21.91;100.00
9239;BME280;4654;43.242;27.976;2022-08-01T00:23:53;98778.75;;;21.93;100.00
9239;BME280;4654;43.242;27.976;2022-08-01T00:26:20;98774.59;;;21.96;100.00
9239;BME280;4654;43.242;27.976;2022-08-01T00:28:47;98767.69;;;21.95;100.00
9239;BME280;4654;43.242;27.976;2022-08-01T00:31:14;98760.44;;;21.95;100.00
9239;BME280;4654;43.242;27.976;2022-08-01T00:33:41;98761.16;;;21.92;100.00
9239;BME280;4654;43.242;27.976;2022-08-01T00:36:08;98761.78;;;21.86;100.00
9239;BME280;4654;43.242;27.976;2022-08-01T00:38:35;98765.13;;;21.79;100.00
9239;BME280;4654;43.242;27.976;2022-08-01T00:41:03;98760.13;;;21.78;100.00
9239;BME280;4654;43.242;27.976;2022-08-01T00:43:30;98760.84;;;21.75;100.00
9239;BME280;4654;43.242;27.976;2022-08-01T00:45:57;98757.88;;;21.80;100.00
9239;BME280;4654;43.242;27.976;2022-08-01T00:48:23;98750.69;;;21.84;100.00
9239;BME280;4654;43.242;27.976;2022-08-01T00:50:50;98759.84;;;21.83;100.00
9239;BME280;4654;43.242;27.976;2022-08-01T00:53:17;98758.22;;;21.78;99.21
9239;BME280;4654;43.242;27.976;2022-08-01T00:55:44;98760.44;;;21.73;96.27
9239;BME280;4654;43.242;27.976;2022-08-01T00:58:13;98763.72;;;21.66;94.58
9239;BME280;4654;43.242;27.976;2022-08-01T01:00:40;98765.28;;;21.67;93.48
9239;BME280;4654;43.242;27.976;2022-08-01T01:03:06;98763.44;;;21.71;92.59
9239;BME280;4654;43.242;27.976;2022-08-01T01:05:43;98768.16;;;21.78;91.63
9239;BME280;4654;43.242;27.976;2022-08-01T01:08:19;98751.41;;;21.81;90.04
9239;BME280;4654;43.242;27.976;2022-08-01T01:10:55;98763.56;;;21.78;89.40
9239;BME280;4654;43.242;27.976;2022-08-01T01:13:32;98754.38;;;21.76;87.29
9239;BME280;4654;43.242;27.976;2022-08-01T01:16:06;98744.22;;;21.66;85.86
9239;BME280;4654;43.242;27.976;2022-08-01T01:18:38;98760.44;;;21.73;84.24
9239;BME280;4654;43.242;27.976;2022-08-01T01:23:53;98752.38;;;21.54;83.21
9239;BME280;4654;43.242;27.976;2022-08-01T01:26:31;98755.34;;;21.49;83.34
9239;BME280;4654;43.242;27.976;2022-08-01T01:29:08;98752.19;;;21.43;83.60
9239;BME280;4654;43.242;27.976;2022-08-01T01:31:42;98751.75;;;21.41;83.58
9239;BME280;4654;43.242;27.976;2022-08-01T01:34:11;98733.91;;;21.26;82.92
9239;BME280;4654;43.242;27.976;2022-08-01T01:36:39;98759.66;;;21.34;83.04
9239;BME280;4654;43.242;27.976;2022-08-01T01:39:07;98753.47;;;21.30;83.16
9239;BME280;4654;43.242;27.976;2022-08-01T01:41:36;98756.00;;;21.23;83.84
9239;BME280;4654;43.242;27.976;2022-08-01T01:44:05;98765.72;;;21.12;83.64
9239;BME280;4654;43.242;27.976;2022-08-01T01:46:33;98753.66;;;21.03;82.70
9239;BME280;4654;43.242;27.976;2022-08-01T01:49:03;98745.38;;;20.89;82.14
9239;BME280;4654;43.242;27.976;2022-08-01T01:51:32;98754.28;;;20.96;81.59
9239;BME280;4654;43.242;27.976;2022-08-01T01:54:01;98753.09;;;20.94;81.10
9239;BME280;4654;43.242;27.976;2022-08-01T01:56:30;98744.38;;;20.97;80.55
9239;BME280;4654;43.242;27.976;2022-08-01T01:59:00;98753.94;;;20.98;79.61
9239;BME280;4654;43.242;27.976;2022-08-01T02:01:31;98745.41;;;20.92;79.16
9239;BME280;4654;43.242;27.976;2022-08-01T02:03:59;98740.06;;;20.92;79.31
9239;BME280;4654;43.242;27.976;2022-08-01T02:06:29;98749.91;;;20.89;79.10
9239;BME280;4654;43.242;27.976;2022-08-01T02:08:57;98746.91;;;20.75;79.28
9239;BME280;4654;43.242;27.976;2022-08-01T02:11:27;98760.00;;;20.80;79.62
9239;BME280;4654;43.242;27.976;2022-08-01T02:14:01;98752.72;;;20.61;80.63
9239;BME280;4654;43.242;27.976;2022-08-01T02:16:34;98757.13;;;20.54;80.55
9239;BME280;4654;43.242;27.976;2022-08-01T02:19:02;98751.63;;;20.47;80.71
9239;BME280;4654;43.242;27.976;2022-08-01T02:21:33;98750.16;;;20.49;80.32
9239;BME280;4654;43.242;27.976;2022-08-01T02:24:07;98749.53;;;20.40;80.57
9239;BME280;4654;43.242;27.976;2022-08-01T02:26:39;98715.59;;;20.22;80.70
9239;BME280;4654;43.242;27.976;2022-08-01T02:29:10;98744.16;;;20.37;81.13
9239;BME280;4654;43.242;27.976;2022-08-01T02:31:41;98748.94;;;20.47;80.68
9239;BME280;4654;43.242;27.976;2022-08-01T02:34:16;98736.41;;;20.32;80.36
9239;BME280;4654;43.242;27.976;2022-08-01T02:36:44;98731.59;;;20.22;80.38
9239;BME280;4654;43.242;27.976;2022-08-01T02:39:14;98741.59;;;20.25;80.55
9239;BME280;4654;43.242;27.976;2022-08-01T02:41:45;98741.91;;;20.23;80.65
9239;BME280;4654;43.242;27.976;2022-08-01T02:44:23;98741.81;;;20.20;80.45
9239;BME280;4654;43.242;27.976;2022-08-01T02:46:54;98741.47;;;20.21;80.48
9239;BME280;4654;43.242;27.976;2022-08-01T02:49:24;98742.69;;;20.24;79.66
9239;BME280;4654;43.242;27.976;2022-08-01T02:51:54;98736.84;;;20.18;79.78
9239;BME280;4654;43.242;27.976;2022-08-01T02:54:22;98749.75;;;20.16;80.04
9239;BME280;4654;43.242;27.976;2022-08-01T02:56:51;98750.88;;;20.15;80.05
9239;BME280;4654;43.242;27.976;2022-08-01T02:59:22;98740.03;;;20.08;80.00
9239;BME280;4654;43.242;27.976;2022-08-01T03:01:54;98751.13;;;20.10;80.29
9239;BME280;4654;43.242;27.976;2022-08-01T03:04:23;98757.50;;;20.06;80.01
9239;BME280;4654;43.242;27.976;2022-08-01T03:06:51;98752.53;;;20.04;80.64
9239;BME280;4654;43.242;27.976;2022-08-01T03:09:20;98754.13;;;20.09;80.45
9239;BME280;4654;43.242;27.976;2022-08-01T03:11:49;98771.44;;;20.15;80.02
9239;BME280;4654;43.242;27.976;2022-08-01T03:14:20;98744.41;;;20.16;78.88
9239;BME280;4654;43.242;27.976;2022-08-01T03:16:49;98761.81;;;20.41;77.90
9239;BME280;4654;43.242;27.976;2022-08-01T03:19:18;98755.22;;;20.54;77.05
9239;BME280;4654;43.242;27.976;2022-08-01T03:21:48;98760.00;;;20.80;75.61
9239;BME280;4654;43.242;27.976;2022-08-01T03:24:16;98768.84;;;20.99;73.98
9239;BME280;4654;43.242;27.976;2022-08-01T03:26:45;98760.56;;;21.42;71.98
9239;BME280;4654;43.242;27.976;2022-08-01T03:29:17;98745.66;;;21.82;69.86
9239;BME280;4654;43.242;27.976;2022-08-01T03:31:47;98755.03;;;22.37;67.30
9239;BME280;4654;43.242;27.976;2022-08-01T03:34:15;98758.25;;;22.75;65.64
9239;BME280;4654;43.242;27.976;2022-08-01T03:36:46;98759.16;;;22.82;63.85
9239;BME280;4654;43.242;27.976;2022-08-01T03:39:16;98755.16;;;23.25;63.27
9239;BME280;4654;43.242;27.976;2022-08-01T03:41:49;98742.41;;;23.51;60.88
9239;BME280;4654;43.242;27.976;2022-08-01T03:44:25;98747.78;;;23.88;59.11
9239;BME280;4654;43.242;27.976;2022-08-01T03:46:58;98737.41;;;24.29;57.59
9239;BME280;4654;43.242;27.976;2022-08-01T03:49:29;98737.25;;;24.59;56.35
9239;BME280;4654;43.242;27.976;2022-08-01T03:51:58;98719.34;;;24.84;54.87
9239;BME280;4654;43.242;27.976;2022-08-01T03:54:30;98727.66;;;25.40;53.61
9239;BME280;4654;43.242;27.976;2022-08-01T03:57:00;98718.91;;;25.77;51.64
9239;BME280;4654;43.242;27.976;2022-08-01T03:59:27;98730.88;;;26.39;50.66
9239;BME280;4654;43.242;27.976;2022-08-01T04:01:55;98729.75;;;26.47;49.40
9239;BME280;4654;43.242;27.976;2022-08-01T04:04:22;98724.66;;;26.81;48.78
9239;BME280;4654;43.242;27.976;2022-08-01T04:06:49;98718.72;;;27.31;47.43
9239;BME280;4654;43.242;27.976;2022-08-01T04:09:21;98721.06;;;27.90;45.72
9239;BME280;4654;43.242;27.976;2022-08-01T04:11:48;98724.34;;;28.15;44.83
9239;BME280;4654;43.242;27.976;2022-08-01T04:14:15;98710.25;;;28.41;44.20
9239;BME280;4654;43.242;27.976;2022-08-01T04:16:42;98714.06;;;28.80;43.83
9239;BME280;4654;43.242;27.976;2022-08-01T04:19:09;98716.28;;;29.22;42.92
9239;BME280;4654;43.242;27.976;2022-08-01T04:21:36;98715.16;;;29.50;42.34
9239;BME280;4654;43.242;27.976;2022-08-01T04:24:07;98720.41;;;29.90;41.33
9239;BME280;4654;43.242;27.976;2022-08-01T04:26:37;98714.16;;;29.93;41.14
9239;BME280;4654;43.242;27.976;2022-08-01T04:29:06;98708.97;;;30.90;40.37
9239;BME280;4654;43.242;27.976;2022-08-01T04:31:36;98727.19;;;31.48;39.28
9239;BME280;4654;43.242;27.976;2022-08-01T04:34:05;98708.56;;;32.30;37.60
9239;BME280;4654;43.242;27.976;2022-08-01T04:36:34;98709.94;;;32.82;36.17
9239;BME280;4654;43.242;27.976;2022-08-01T04:39:03;98707.34;;;33.57;35.67
9239;BME280;4654;43.242;27.976;2022-08-01T04:41:31;98704.53;;;33.73;35.81
9239;BME280;4654;43.242;27.976;2022-08-01T04:44:00;98688.50;;;34.68;34.47
9239;BME280;4654;43.242;27.976;2022-08-01T04:46:28;98710.25;;;34.93;34.04
9239;BME280;4654;43.242;27.976;2022-08-01T04:48:55;98707.44;;;34.84;33.42
9239;BME280;4654;43.242;27.976;2022-08-01T04:51:22;98697.97;;;35.19;33.74
9239;BME280;4654;43.242;27.976;2022-08-01T04:53:50;98703.47;;;35.06;33.46
9239;BME280;4654;43.242;27.976;2022-08-01T04:56:17;98711.81;;;34.81;33.64
9239;BME280;4654;43.242;27.976;2022-08-01T04:58:44;98705.41;;;35.88;33.40
9239;BME280;4654;43.242;27.976;2022-08-01T05:01:13;98700.31;;;37.24;31.90
9239;BME280;4654;43.242;27.976;2022-08-01T05:03:40;98726.53;;;37.16;31.96
9239;BME280;4654;43.242;27.976;2022-08-01T05:06:06;98718.69;;;37.83;31.72
9239;BME280;4654;43.242;27.976;2022-08-01T05:08:33;98711.59;;;38.00;30.97
9239;BME280;4654;43.242;27.976;2022-08-01T05:11:01;98723.88;;;38.37;30.28
9239;BME280;4654;43.242;27.976;2022-08-01T05:13:28;98724.16;;;39.29;29.50
9239;BME280;4654;43.242;27.976;2022-08-01T05:15:55;98715.03;;;39.09;29.85
9239;BME280;4654;43.242;27.976;2022-08-01T05:18:24;98723.66;;;39.60;28.97
9239;BME280;4654;43.242;27.976;2022-08-01T05:20:52;98722.50;;;40.15;28.84
9239;BME280;4654;43.242;27.976;2022-08-01T05:23:19;98723.53;;;41.03;28.20
9239;BME280;4654;43.242;27.976;2022-08-01T05:25:45;98732.44;;;41.18;27.19
9239;BME280;4654;43.242;27.976;2022-08-01T05:28:14;98730.81;;;41.26;27.73
9239;BME280;4654;43.242;27.976;2022-08-01T05:30:41;98736.34;;;41.93;26.90
9239;BME280;4654;43.242;27.976;2022-08-01T05:33:08;98727.84;;;41.35;27.44
9239;BME280;4654;43.242;27.976;2022-08-01T05:35:36;98716.22;;;42.40;26.93
9239;BME280;4654;43.242;27.976;2022-08-01T05:38:03;98717.38;;;41.75;26.50
9239;BME280;4654;43.242;27.976;2022-08-01T05:40:30;98718.13;;;40.88;27.01
9239;BME280;4654;43.242;27.976;2022-08-01T05:42:57;98727.28;;;40.00;28.05
9239;BME280;4654;43.242;27.976;2022-08-01T05:45:24;98716.09;;;38.97;28.66
9239;BME280;4654;43.242;27.976;2022-08-01T05:47:51;98718.91;;;38.73;29.54
9239;BME280;4654;43.242;27.976;2022-08-01T05:50:18;98714.44;;;39.48;27.91
9239;BME280;4654;43.242;27.976;2022-08-01T05:52:46;98725.75;;;37.43;29.97
9239;BME280;4654;43.242;27.976;2022-08-01T05:55:13;98719.38;;;37.69;30.75
9239;BME280;4654;43.242;27.976;2022-08-01T05:57:40;98717.78;;;39.09;28.57
9239;BME280;4654;43.242;27.976;2022-08-01T06:00:08;98721.88;;;39.13;28.57
9239;BME280;4654;43.242;27.976;2022-08-01T06:02:40;98728.13;;;39.14;27.96
9239;BME280;4654;43.242;27.976;2022-08-01T06:05:07;98716.94;;;39.61;27.96
9239;BME280;4654;43.242;27.976;2022-08-01T06:07:34;98713.03;;;39.53;28.36
9239;BME280;4654;43.242;27.976;2022-08-01T06:10:03;98710.66;;;39.95;27.83
9239;BME280;4654;43.242;27.976;2022-08-01T06:12:32;98704.84;;;41.18;27.39
9239;BME280;4654;43.242;27.976;2022-08-01T06:14:59;98704.09;;;42.26;26.74
9239;BME280;4654;43.242;27.976;2022-08-01T06:17:26;98700.72;;;42.53;25.56
9239;BME280;4654;43.242;27.976;2022-08-01T06:19:52;98687.47;;;43.51;25.27
9239;BME280;4654;43.242;27.976;2022-08-01T06:22:19;98681.41;;;44.47;24.62
9239;BME280;4654;43.242;27.976;2022-08-01T06:24:46;98686.19;;;43.68;24.84
9239;BME280;4654;43.242;27.976;2022-08-01T06:27:14;98689.75;;;41.44;25.65
9239;BME280;4654;43.242;27.976;2022-08-01T06:29:41;98693.16;;;40.52;26.26
9239;BME280;4654;43.242;27.976;2022-08-01T06:32:08;98684.09;;;38.85;27.87
9239;BME280;4654;43.242;27.976;2022-08-01T06:34:36;98694.69;;;41.04;26.65
9239;BME280;4654;43.242;27.976;2022-08-01T06:37:02;98694.75;;;41.71;26.02
9239;BME280;4654;43.242;27.976;2022-08-01T06:39:29;98683.59;;;42.55;25.45
9239;BME280;4654;43.242;27.976;2022-08-01T06:41:56;98674.38;;;44.81;23.98
9239;BME280;4654;43.242;27.976;2022-08-01T06:44:24;98688.50;;;43.26;24.10
9239;BME280;4654;43.242;27.976;2022-08-01T06:46:51;98678.66;;;43.63;24.85
9239;BME280;4654;43.242;27.976;2022-08-01T06:49:18;98683.78;;;44.16;23.79
9239;BME280;4654;43.242;27.976;2022-08-01T06:51:45;98678.25;;;41.88;24.48
9239;BME280;4654;43.242;27.976;2022-08-01T06:54:12;98683.66;;;41.04;25.54
9239;BME280;4654;43.242;27.976;2022-08-01T06:56:39;98697.31;;;42.27;24.93
9239;BME280;4654;43.242;27.976;2022-08-01T06:59:06;98693.81;;;41.49;26.19
9239;BME280;4654;43.242;27.976;2022-08-01T07:01:34;98684.25;;;41.86;25.50
9239;BME280;4654;43.242;27.976;2022-08-01T07:04:01;98707.81;;;41.71;25.97
9239;BME280;4654;43.242;27.976;2022-08-01T07:06:29;98697.44;;;40.78;25.97
9239;BME280;4654;43.242;27.976;2022-08-01T07:08:56;98704.34;;;40.68;26.30
9239;BME280;4654;43.242;27.976;2022-08-01T07:11:23;98705.66;;;40.98;25.60
9239;BME280;4654;43.242;27.976;2022-08-01T07:13:50;98703.53;;;42.86;24.39
9239;BME280;4654;43.242;27.976;2022-08-01T07:16:17;98711.66;;;43.39;24.77
9239;BME280;4654;43.242;27.976;2022-08-01T07:18:45;98729.03;;;43.18;24.64
9239;BME280;4654;43.242;27.976;2022-08-01T07:21:12;98731.78;;;43.83;23.81
9239;BME280;4654;43.242;27.976;2022-08-01T07:23:39;98728.31;;;45.61;23.11
9239;BME280;4654;43.242;27.976;2022-08-01T07:26:06;98739.63;;;45.68;22.97
9239;BME280;4654;43.242;27.976;2022-08-01T07:28:33;98747.06;;;45.55;22.69
9239;BME280;4654;43.242;27.976;2022-08-01T07:31:00;98752.19;;;42.40;24.63
9239;BME280;4654;43.242;27.976;2022-08-01T07:33:27;98755.38;;;39.70;27.14
9239;BME280;4654;43.242;27.976;2022-08-01T07:35:55;98746.53;;;38.70;27.91
9239;BME280;4654;43.242;27.976;2022-08-01T07:38:22;98745.09;;;37.30;30.32
9239;BME280;4654;43.242;27.976;2022-08-01T07:40:49;98750.13;;;36.33;31.17
9239;BME280;4654;43.242;27.976;2022-08-01T07:43:16;98748.78;;;36.47;31.61
9239;BME280;4654;43.242;27.976;2022-08-01T07:45:43;98746.63;;;35.54;31.97
9239;BME280;4654;43.242;27.976;2022-08-01T07:48:10;98743.84;;;35.02;32.77
9239;BME280;4654;43.242;27.976;2022-08-01T07:50:37;98750.16;;;34.44;33.46
9239;BME280;4654;43.242;27.976;2022-08-01T07:53:05;98734.31;;;34.05;32.73
9239;BME280;4654;43.242;27.976;2022-08-01T07:55:32;98728.44;;;33.81;34.15
9239;BME280;4654;43.242;27.976;2022-08-01T07:57:59;98742.59;;;33.64;34.42
9239;BME280;4654;43.242;27.976;2022-08-01T08:00:26;98738.56;;;33.68;34.30
9239;BME280;4654;43.242;27.976;2022-08-01T08:02:53;98745.97;;;33.56;34.18
9239;BME280;4654;43.242;27.976;2022-08-01T08:05:24;98754.66;;;33.38;33.93
9239;BME280;4654;43.242;27.976;2022-08-01T08:07:51;98761.53;;;33.55;33.79
9239;BME280;4654;43.242;27.976;2022-08-01T08:10:19;98752.66;;;32.85;34.85
9239;BME280;4654;43.242;27.976;2022-08-01T08:12:46;98755.72;;;32.71;35.22
9239;BME280;4654;43.242;27.976;2022-08-01T08:15:14;98752.66;;;32.69;35.52
9239;BME280;4654;43.242;27.976;2022-08-01T08:17:41;98749.66;;;32.80;35.33
9239;BME280;4654;43.242;27.976;2022-08-01T08:20:09;98746.44;;;33.26;34.81
9239;BME280;4654;43.242;27.976;2022-08-01T08:22:37;98738.00;;;33.49;35.30
9239;BME280;4654;43.242;27.976;2022-08-01T08:25:06;98761.41;;;33.34;34.07
9239;BME280;4654;43.242;27.976;2022-08-01T08:27:35;98749.72;;;32.92;34.49
9239;BME280;4654;43.242;27.976;2022-08-01T08:30:03;98752.34;;;32.96;35.23
9239;BME280;4654;43.242;27.976;2022-08-01T08:32:32;98749.41;;;32.74;34.85
9239;BME280;4654;43.242;27.976;2022-08-01T08:34:59;98758.16;;;32.37;35.14
9239;BME280;4654;43.242;27.976;2022-08-01T08:37:26;98752.88;;;32.30;35.61
9239;BME280;4654;43.242;27.976;2022-08-01T08:39:53;98746.97;;;32.48;35.54
9239;BME280;4654;43.242;27.976;2022-08-01T08:42:20;98755.03;;;32.83;36.31
9239;BME280;4654;43.242;27.976;2022-08-01T08:44:49;98756.59;;;33.25;35.67
9239;BME280;4654;43.242;27.976;2022-08-01T08:47:17;98748.03;;;33.11;34.75
9239;BME280;4654;43.242;27.976;2022-08-01T08:49:46;98749.81;;;32.89;35.18
9239;BME280;4654;43.242;27.976;2022-08-01T08:52:14;98744.75;;;33.03;35.22
9239;BME280;4654;43.242;27.976;2022-08-01T08:54:42;98752.19;;;32.87;35.78
9239;BME280;4654;43.242;27.976;2022-08-01T08:57:10;98754.88;;;32.58;36.08
9239;BME280;4654;43.242;27.976;2022-08-01T08:59:39;98752.25;;;31.75;35.91
9239;BME280;4654;43.242;27.976;2022-08-01T09:02:08;98740.22;;;31.57;36.26
9239;BME280;4654;43.242;27.976;2022-08-01T09:04:35;98742.16;;;31.56;36.98
9239;BME280;4654;43.242;27.976;2022-08-01T09:07:05;98735.16;;;31.75;37.03
9239;BME280;4654;43.242;27.976;2022-08-01T09:09:33;98740.34;;;31.69;36.53
9239;BME280;4654;43.242;27.976;2022-08-01T09:12:00;98743.00;;;31.53;36.79
9239;BME280;4654;43.242;27.976;2022-08-01T09:14:27;98730.72;;;31.65;36.92
9239;BME280;4654;43.242;27.976;2022-08-01T09:17:00;98733.72;;;31.70;35.87
9239;BME280;4654;43.242;27.976;2022-08-01T09:19:36;98726.28;;;31.55;37.24
9239;BME280;4654;43.242;27.976;2022-08-01T09:22:04;98735.84;;;31.43;36.46
9239;BME280;4654;43.242;27.976;2022-08-01T09:24:33;98726.66;;;31.37;36.31
9239;BME280;4654;43.242;27.976;2022-08-01T09:27:01;98738.25;;;31.57;36.46
9239;BME280;4654;43.242;27.976;2022-08-01T09:29:30;98728.06;;;31.61;36.69
9239;BME280;4654;43.242;27.976;2022-08-01T09:31:57;98732.03;;;31.92;36.49
9239;BME280;4654;43.242;27.976;2022-08-01T09:34:26;98713.84;;;31.89;36.34
9239;BME280;4654;43.242;27.976;2022-08-01T09:36:56;98733.22;;;31.91;36.41
9239;BME280;4654;43.242;27.976;2022-08-01T09:39:25;98729.47;;;32.01;36.66
9239;BME280;4654;43.242;27.976;2022-08-01T09:41:52;98725.50;;;31.90;36.67
9239;BME280;4654;43.242;27.976;2022-08-01T09:44:25;98719.91;;;31.61;35.59
9239;BME280;4654;43.242;27.976;2022-08-01T09:47:02;98729.66;;;31.23;36.37
9239;BME280;4654;43.242;27.976;2022-08-01T09:49:31;98713.84;;;31.18;36.53
9239;BME280;4654;43.242;27.976;2022-08-01T09:52:10;98720.06;;;31.19;37.72
9239;BME280;4654;43.242;27.976;2022-08-01T09:54:38;98713.94;;;31.15;36.05
9239;BME280;4654;43.242;27.976;2022-08-01T09:57:10;98716.06;;;31.23;36.93
9239;BME280;4654;43.242;27.976;2022-08-01T09:59:39;98710.53;;;31.11;36.72
9239;BME280;4654;43.242;27.976;2022-08-01T10:02:08;98722.25;;;31.04;35.93
9239;BME280;4654;43.242;27.976;2022-08-01T10:04:36;98707.31;;;30.96;36.11
9239;BME280;4654;43.242;27.976;2022-08-01T10:07:07;98725.97;;;31.33;37.77
9239;BME280;4654;43.242;27.976;2022-08-01T10:09:35;98722.97;;;31.63;36.92
9239;BME280;4654;43.242;27.976;2022-08-01T10:12:03;98730.75;;;31.61;36.13
9239;BME280;4654;43.242;27.976;2022-08-01T10:14:31;98714.44;;;31.45;36.71
9239;BME280;4654;43.242;27.976;2022-08-01T10:16:59;98720.53;;;31.69;35.40
9239;BME280;4654;43.242;27.976;2022-08-01T10:19:29;98714.78;;;31.47;35.86
9239;BME280;4654;43.242;27.976;2022-08-01T10:21:58;98726.78;;;31.50;36.52
9239;BME280;4654;43.242;27.976;2022-08-01T10:24:28;98727.00;;;31.75;36.46
9239;BME280;4654;43.242;27.976;2022-08-01T10:26:58;98734.34;;;31.94;36.87
9239;BME280;4654;43.242;27.976;2022-08-01T10:29:33;98728.38;;;31.99;35.21
9239;BME280;4654;43.242;27.976;2022-08-01T10:32:04;98706.19;;;31.84;35.08
9239;BME280;4654;43.242;27.976;2022-08-01T10:34:31;98726.31;;;31.87;36.21
9239;BME280;4654;43.242;27.976;2022-08-01T10:37:00;98724.31;;;31.91;36.20
9239;BME280;4654;43.242;27.976;2022-08-01T10:39:30;98714.78;;;31.47;35.39
9239;BME280;4654;43.242;27.976;2022-08-01T10:41:58;98734.50;;;31.51;36.64
9239;BME280;4654;43.242;27.976;2022-08-01T10:44:27;98729.34;;;31.57;35.96
9239;BME280;4654;43.242;27.976;2022-08-01T10:46:59;98720.03;;;31.74;36.03
9239;BME280;4654;43.242;27.976;2022-08-01T10:49:30;98731.94;;;31.80;35.78
9239;BME280;4654;43.242;27.976;2022-08-01T10:51:58;98733.81;;;31.83;36.27
9239;BME280;4654;43.242;27.976;2022-08-01T10:54:26;98726.75;;;32.01;36.07
9239;BME280;4654;43.242;27.976;2022-08-01T10:56:54;98716.28;;;31.84;35.11
9239;BME280;4654;43.242;27.976;2022-08-01T10:59:27;98714.53;;;31.93;35.59
9239;BME280;4654;43.242;27.976;2022-08-01T11:01:58;98707.19;;;31.39;35.25
9239;BME280;4654;43.242;27.976;2022-08-01T11:04:33;98715.59;;;30.89;35.42
9239;BME280;4654;43.242;27.976;2022-08-01T11:07:05;98706.03;;;30.81;37.51
9239;BME280;4654;43.242;27.976;2022-08-01T11:09:41;98720.03;;;30.99;36.76
9239;BME280;4654;43.242;27.976;2022-08-01T11:12:11;98719.16;;;30.86;36.92
9239;BME280;4654;43.242;27.976;2022-08-01T11:17:50;98704.78;;;30.86;37.78
9239;BME280;4654;43.242;27.976;2022-08-01T11:20:19;98700.13;;;30.86;37.31
9239;BME280;4654;43.242;27.976;2022-08-01T11:26:19;98708.19;;;30.70;37.87
9239;BME280;4654;43.242;27.976;2022-08-01T11:29:15;98694.13;;;30.95;37.31
9239;BME280;4654;43.242;27.976;2022-08-01T11:31:43;98702.41;;;31.27;36.31
9239;BME280;4654;43.242;27.976;2022-08-01T11:34:10;98708.72;;;31.40;35.88
9239;BME280;4654;43.242;27.976;2022-08-01T11:36:37;98699.03;;;31.39;35.18
9239;BME280;4654;43.242;27.976;2022-08-01T11:39:14;98703.56;;;31.45;35.39
9239;BME280;4654;43.242;27.976;2022-08-01T11:41:43;98705.44;;;31.48;36.04
9239;BME280;4654;43.242;27.976;2022-08-01T11:44:14;98699.47;;;31.37;35.49
9239;BME280;4654;43.242;27.976;2022-08-01T11:46:52;98700.09;;;31.25;36.44
9239;BME280;4654;43.242;27.976;2022-08-01T11:49:34;98704.56;;;31.35;37.10
9239;BME280;4654;43.242;27.976;2022-08-01T11:52:11;98705.72;;;31.54;36.52
9239;BME280;4654;43.242;27.976;2022-08-01T11:54:40;98702.50;;;31.59;36.01
9239;BME280;4654;43.242;27.976;2022-08-01T11:57:09;98706.66;;;31.63;35.76
9239;BME280;4654;43.242;27.976;2022-08-01T11:59:40;98699.94;;;31.52;36.03
9239;BME280;4654;43.242;27.976;2022-08-01T12:02:22;98697.44;;;31.41;36.85
9239;BME280;4654;43.242;27.976;2022-08-01T12:04:52;98698.16;;;31.61;36.18
9239;BME280;4654;43.242;27.976;2022-08-01T12:07:20;98696.72;;;31.57;35.72
9239;BME280;4654;43.242;27.976;2022-08-01T12:09:48;98692.63;;;31.49;34.87
9239;BME280;4654;43.242;27.976;2022-08-01T12:12:16;98687.72;;;31.60;35.23
9239;BME280;4654;43.242;27.976;2022-08-01T12:14:53;98685.41;;;31.58;35.09
9239;BME280;4654;43.242;27.976;2022-08-01T12:17:31;98688.72;;;31.50;35.44
9239;BME280;4654;43.242;27.976;2022-08-01T12:19:58;98687.94;;;31.33;36.08
9239;BME280;4654;43.242;27.976;2022-08-01T12:22:25;98686.69;;;31.18;36.20
9239;BME280;4654;43.242;27.976;2022-08-01T12:24:52;98687.78;;;31.01;36.18
9239;BME280;4654;43.242;27.976;2022-08-01T12:27:26;98677.22;;;30.87;36.31
9239;BME280;4654;43.242;27.976;2022-08-01T12:29:55;98682.84;;;30.57;36.28
9239;BME280;4654;43.242;27.976;2022-08-01T12:32:25;98670.97;;;30.48;37.37
9239;BME280;4654;43.242;27.976;2022-08-01T12:34:53;98673.63;;;30.32;36.99
9239;BME280;4654;43.242;27.976;2022-08-01T12:37:21;98682.38;;;30.39;36.69
9239;BME280;4654;43.242;27.976;2022-08-01T12:39:48;98669.06;;;30.26;37.27
9239;BME280;4654;43.242;27.976;2022-08-01T12:42:15;98664.19;;;30.17;37.74
9239;BME280;4654;43.242;27.976;2022-08-01T12:44:44;98664.00;;;30.28;38.79
9239;BME280;4654;43.242;27.976;2022-08-01T12:47:14;98666.66;;;30.31;37.04
9239;BME280;4654;43.242;27.976;2022-08-01T12:49:42;98673.75;;;30.25;38.83
9239;BME280;4654;43.242;27.976;2022-08-01T12:52:10;98673.75;;;29.76;40.14
9239;BME280;4654;43.242;27.976;2022-08-01T12:55:00;98669.19;;;29.46;40.62
9239;BME280;4654;43.242;27.976;2022-08-01T12:57:27;98657.72;;;29.62;40.98
9239;BME280;4654;43.242;27.976;2022-08-01T13:00:05;98663.03;;;29.42;41.47
9239;BME280;4654;43.242;27.976;2022-08-01T13:02:35;98675.75;;;29.19;41.11
9239;BME280;4654;43.242;27.976;2022-08-01T13:05:02;98667.50;;;28.96;41.74
9239;BME280;4654;43.242;27.976;2022-08-01T13:07:37;98669.06;;;28.97;41.90
9239;BME280;4654;43.242;27.976;2022-08-01T13:10:04;98659.59;;;28.42;44.79
9239;BME280;4654;43.242;27.976;2022-08-01T13:12:32;98666.16;;;28.44;44.79
9239;BME280;4654;43.242;27.976;2022-08-01T13:14:58;98668.59;;;28.35;44.36
9239;BME280;4654;43.242;27.976;2022-08-01T13:17:31;98674.44;;;28.30;43.76
9239;BME280;4654;43.242;27.976;2022-08-01T13:20:02;98662.81;;;28.26;43.52
9239;BME280;4654;43.242;27.976;2022-08-01T13:22:32;98647.53;;;28.13;44.84
9239;BME280;4654;43.242;27.976;2022-08-01T13:25:10;98680.34;;;28.11;46.23
9239;BME280;4654;43.242;27.976;2022-08-01T13:27:37;98664.72;;;27.85;46.56
9239;BME280;4654;43.242;27.976;2022-08-01T13:30:11;98672.38;;;27.97;47.03